Time;durP1;ratioP1;P1;durP2;ratioP2;P2;SDS_P1;SDS_P2;PMS_P1;PMS_P2;Temp;Humidity;BMP_temperature;BMP_pressure;BME280_temperature;BME280_humidity;BME280_pressure;Samples;Min_cycle;Max_cycle;Signal;HPM_P1;HPM_P2
2022/03/05 00:01:00;;;;;;;24.97;12.40;;;;;;;1.32;100.00;60944.88;5114307;28;20938;-74
2022/03/05 00:03:29;;;;;;;24.63;12.93;;;;;;;0.42;100.00;60865.53;5114624;28;20437;-72
2022/03/05 00:06:02;;;;;;;32.77;12.87;;;;;;;1.34;100.00;60954.53;5114445;28;20437;-74
2022/03/05 00:08:29;;;;;;;31.40;12.60;;;;;;;1.15;100.00;60934.91;5096323;28;20453;-73
2022/03/05 00:10:56;;;;;;;28.83;15.20;;;;;;;-0.47;100.00;60761.22;5114471;28;20793;-73
2022/03/05 00:13:24;;;;;;;31.77;13.00;;;;;;;-0.15;100.00;60795.13;5115032;28;20529;-76
2022/03/05 00:15:52;;;;;;;23.97;12.23;;;;;;;1.28;100.00;60945.66;5114203;28;20973;-73
2022/03/05 00:18:25;;;;;;;23.90;11.87;;;;;;;1.28;100.00;60945.66;5096229;28;20486;-74
2022/03/05 00:20:53;;;;;;;24.47;12.53;;;;;;;1.19;100.00;60936.13;5114049;28;20444;-74
2022/03/05 00:23:21;;;;;;;26.83;13.83;;;;;;;0.08;100.00;60809.47;5114329;28;20485;-75
2022/03/05 00:25:52;;;;;;;27.97;13.97;;;;;;;0.53;100.00;60872.19;5113899;28;20522;-72
2022/03/05 00:28:24;;;;;;;29.37;13.50;;;;;;;1.22;100.00;60939.28;5095761;28;20546;-74
2022/03/05 00:30:54;;;;;;;31.57;14.43;;;;;;;1.16;100.00;60932.91;5114217;28;20451;-73
2022/03/05 00:33:23;;;;;;;36.60;15.80;;;;;;;0.04;100.00;60820.25;5114122;28;20986;-75
2022/03/05 00:35:51;;;;;;;39.73;19.43;;;;;;;1.07;100.00;60920.88;5114218;28;20492;-76
2022/03/05 00:38:21;;;;;;;39.20;18.97;;;;;;;1.04;100.00;60920.19;5113806;28;20436;-75
2022/03/05 00:40:49;;;;;;;33.67;15.80;;;;;;;1.06;100.00;60922.31;5095590;28;20441;-74
2022/03/05 00:43:17;;;;;;;29.47;14.23;;;;;;;0.97;100.00;60913.28;5113582;28;20484;-73
2022/03/05 00:45:48;;;;;;;31.20;14.57;;;;;;;-0.02;100.00;60811.41;5114288;28;20432;-74
2022/03/05 00:48:15;;;;;;;33.17;16.37;;;;;;;0.53;100.00;60864.66;5113866;28;20449;-73
2022/03/05 00:50:46;;;;;;;38.73;17.70;;;;;;;0.77;100.00;60892.09;5113989;28;20494;-75
2022/03/05 00:53:17;;;;;;;43.83;21.13;;;;;;;0.67;100.00;60882.03;5112984;28;20436;-73
2022/03/05 00:55:44;;;;;;;50.03;23.17;;;;;;;-0.87;100.00;60717.44;5113448;28;20518;-76
2022/03/05 00:58:14;;;;;;;51.60;21.87;;;;;;;0.40;100.00;60853.41;5113548;28;20437;-73
2022/03/05 01:00:43;;;;;;;52.57;22.73;;;;;;;0.32;100.00;60844.94;5113607;28;20473;-73
2022/03/05 01:03:13;;;;;;;54.30;23.03;;;;;;;-1.68;100.00;60629.25;5113324;28;20488;-74
2022/03/05 01:05:50;;;;;;;48.73;21.80;;;;;;;0.25;100.00;60837.50;5113463;28;20437;-75
2022/03/05 01:08:21;;;;;;;48.33;22.00;;;;;;;-1.25;100.00;60674.75;5095589;28;20593;-73
2022/03/05 01:10:48;;;;;;;51.07;22.80;;;;;;;-1.39;100.00;60669.91;5113967;28;20440;-73
2022/03/05 01:13:18;;;;;;;58.10;24.97;;;;;;;0.16;100.00;60827.97;5113721;28;20506;-73
2022/03/05 01:15:53;;;;;;;51.93;23.27;;;;;;;-0.10;100.00;60800.94;5113201;28;20464;-75
2022/03/05 01:18:24;;;;;;;55.60;23.30;;;;;;;-0.12;100.00;60793.31;5113120;28;20523;-75
2022/03/05 01:20:52;;;;;;;69.00;27.30;;;;;;;-0.15;100.00;60795.13;5113521;28;20498;-75
2022/03/05 01:23:26;;;;;;;62.67;27.07;;;;;;;-0.20;100.00;60784.81;5094924;28;20484;-76
2022/03/05 01:25:53;;;;;;;59.83;26.07;;;;;;;-0.11;100.00;60799.34;5113090;28;20611;-74
2022/03/05 01:28:28;;;;;;;68.23;27.17;;;;;;;-0.17;100.00;60788.53;5113517;28;20796;-72
2022/03/05 01:31:00;;;;;;;62.67;25.17;;;;;;;-1.73;100.00;60631.47;5112855;28;20855;-73
2022/03/05 01:33:29;;;;;;;58.47;26.00;;;;;;;-0.43;100.00;60765.47;5112975;28;20484;-74
2022/03/05 01:35:57;;;;;;;55.47;24.67;;;;;;;-1.69;100.00;60633.19;5112999;28;20452;-74
2022/03/05 01:38:34;;;;;;;50.87;23.87;;;;;;;-1.84;100.00;60615.38;5112587;28;20452;-74
2022/03/05 01:41:02;;;;;;;49.30;23.97;;;;;;;-0.28;100.00;60776.88;5113414;28;20417;-72
2022/03/05 01:43:30;;;;;;;51.00;24.60;;;;;;;-0.94;100.00;60712.53;5112082;28;20545;-73
2022/03/05 01:45:58;;;;;;;57.37;25.27;;;;;;;-0.75;100.00;60731.59;5113492;28;20437;-74
2022/03/05 01:48:31;;;;;;;58.27;25.20;;;;;;;-0.07;100.00;60801.09;5112405;28;20429;-73
2022/03/05 01:51:02;;;;;;;95.73;34.63;;;;;;;-1.11;100.00;60694.03;5112727;28;20451;-75
2022/03/05 01:53:38;;;;;;;315.23;89.73;;;;;;;-1.48;100.00;60657.91;5112434;28;20608;-72
2022/03/05 01:56:07;;;;;;;108.33;39.50;;;;;;;-1.83;100.00;60623.38;5112284;28;20444;-75
2022/03/05 01:58:36;;;;;;;69.20;29.47;;;;;;;-0.13;100.00;60794.72;5112593;28;20901;-73
2022/03/05 02:01:04;;;;;;;62.03;26.20;;;;;;;-0.17;100.00;60793.00;5112345;28;20449;-76
2022/03/05 02:03:34;;;;;;;58.40;24.47;;;;;;;-0.21;100.00;60788.75;5112380;28;20484;-73
2022/03/05 02:06:01;;;;;;;50.60;26.53;;;;;;;-0.19;100.00;60791.41;5093672;28;20966;-73
2022/03/05 02:08:38;;;;;;;54.40;25.87;;;;;;;-0.22;100.00;60788.22;5093977;28;20524;-75
2022/03/05 02:11:07;;;;;;;49.77;24.77;;;;;;;-0.10;100.00;60795.41;5094477;28;20448;-75
2022/03/05 02:13:36;;;;;;;57.07;25.37;;;;;;;-0.16;100.00;60794.06;5112087;28;20931;-76
2022/03/05 02:16:04;;;;;;;55.43;25.50;;;;;;;-1.44;100.00;60664.09;5112330;28;20536;-74
2022/03/05 02:18:32;;;;;;;57.07;26.17;;;;;;;-1.33;100.00;60665.75;5111548;28;20537;-73
2022/03/05 02:21:02;;;;;;;52.17;25.10;;;;;;;0.02;100.00;60812.59;5112587;28;20527;-73
2022/03/05 02:23:31;;;;;;;51.33;24.43;;;;;;;0.03;100.00;60811.16;5112212;28;20927;-75
2022/03/05 02:26:13;;;;;;;61.03;25.57;;;;;;;0.15;100.00;60826.91;5112110;28;20425;-74
2022/03/05 02:28:42;;;;;;;55.47;26.03;;;;;;;0.21;100.00;60833.25;5112379;28;20452;-74
2022/03/05 02:31:18;;;;;;;54.77;26.33;;;;;;;0.10;100.00;60821.63;5112637;28;20425;-74
2022/03/05 02:33:48;;;;;;;53.10;25.33;;;;;;;0.17;100.00;60826.53;5094286;28;20539;-73
2022/03/05 02:36:18;;;;;;;51.30;24.73;;;;;;;0.10;100.00;60826.63;5111847;28;20568;-73
2022/03/05 02:38:44;;;;;;;54.23;24.50;;;;;;;-1.01;100.00;60700.13;5112107;28;20452;-73
2022/03/05 02:41:12;;;;;;;54.67;24.67;;;;;;;-0.63;100.00;60749.28;5111862;28;20449;-75
2022/03/05 02:43:41;;;;;;;48.77;24.00;;;;;;;0.26;100.00;60833.56;5112191;28;20487;-73
2022/03/05 02:46:09;;;;;;;50.23;23.80;;;;;;;0.14;100.00;60823.34;5112326;28;20447;-73
2022/03/05 02:51:37;;;;;;;45.73;22.23;;;;;;;0.13;100.00;60819.78;5111944;28;20469;-75
2022/03/05 02:54:06;;;;;;;42.90;20.10;;;;;;;0.07;100.00;60817.88;5109577;28;20441;-75
2022/03/05 02:56:34;;;;;;;36.40;19.60;;;;;;;-1.76;100.00;60625.78;5112106;28;20436;-74
2022/03/05 02:59:02;;;;;;;43.20;19.73;;;;;;;0.31;100.00;60843.31;5112774;28;20441;-74
2022/03/05 03:01:30;;;;;;;43.83;20.60;;;;;;;-1.14;100.00;60691.38;5111656;28;20448;-74
2022/03/05 03:03:59;;;;;;;41.03;19.80;;;;;;;0.38;100.00;60851.28;5111224;28;20492;-74
2022/03/05 03:06:27;;;;;;;44.63;21.13;;;;;;;-1.03;100.00;60698.03;5093600;28;20441;-75
2022/03/05 03:08:56;;;;;;;47.97;21.27;;;;;;;0.39;100.00;60851.81;5112013;28;20460;-75
2022/03/05 03:11:25;;;;;;;44.20;20.77;;;;;;;0.31;100.00;60838.84;5111837;28;20437;-75
2022/03/05 03:13:52;;;;;;;53.13;23.03;;;;;;;-1.01;100.00;60705.13;5110854;28;20476;-74
2022/03/05 03:16:19;;;;;;;47.10;22.83;;;;;;;0.39;100.00;60852.34;5111463;28;20810;-76
2022/03/05 03:18:46;;;;;;;49.37;22.53;;;;;;;0.41;100.00;60854.47;5115468;28;20447;-75
2022/03/05 03:21:23;;;;;;;46.73;22.97;;;;;;;0.19;100.00;60828.09;5115391;28;20510;-73
2022/03/05 03:23:51;;;;;;;47.83;21.23;;;;;;;0.17;100.00;60829.03;5114946;28;20578;-74
2022/03/05 03:26:20;;;;;;;48.20;22.07;;;;;;;0.16;100.00;60827.97;5116011;28;20441;-75
2022/03/05 03:28:48;;;;;;;54.87;24.40;;;;;;;0.11;100.00;60822.13;5115540;28;20846;-73
2022/03/05 03:31:17;;;;;;;50.73;23.37;;;;;;;-0.87;100.00;60719.41;5115175;28;20775;-75
2022/03/05 03:33:46;;;;;;;55.27;24.73;;;;;;;0.03;100.00;60814.19;5111593;28;20474;-75
2022/03/05 03:36:13;;;;;;;56.43;23.57;;;;;;;-0.02;100.00;60809.41;5115285;28;20445;-72
2022/03/05 03:38:41;;;;;;;50.23;23.13;;;;;;;-1.85;100.00;60611.28;5115077;28;20535;-74
2022/03/05 03:43:55;;;;;;;48.73;21.27;;;;;;;0.01;100.00;60814.56;5114682;28;21179;-74
2022/03/05 03:46:22;;;;;;;41.63;19.83;;;;;;;0.09;100.00;60815.53;5114830;28;20460;-74
2022/03/05 03:48:53;;;;;;;48.63;20.67;;;;;;;-1.23;100.00;60678.81;5114997;28;20811;-74
2022/03/05 03:51:21;;;;;;;42.33;21.20;;;;;;;0.16;100.00;60827.97;5114858;28;20429;-74
2022/03/05 03:53:56;;;;;;;50.17;21.20;;;;;;;0.15;100.00;60826.38;5097172;28;20447;-74
2022/03/05 03:56:24;;;;;;;49.33;21.47;;;;;;;-1.93;100.00;60602.84;5114896;28;20998;-75
2022/03/05 03:58:53;;;;;;;44.43;20.93;;;;;;;-0.01;100.00;60807.44;5114411;28;20461;-74
2022/03/05 04:01:22;;;;;;;47.07;20.17;;;;;;;-0.04;100.00;60802.28;5115565;28;20429;-74
2022/03/05 04:03:51;;;;;;;47.17;21.20;;;;;;;-0.03;100.00;60805.31;5114218;28;21058;-75
2022/03/05 04:06:20;;;;;;;42.70;20.60;;;;;;;-0.21;100.00;60789.28;5096144;28;20441;-74
2022/03/05 04:08:49;;;;;;;47.03;20.33;;;;;;;-0.14;100.00;60793.69;5115159;28;20441;-74
2022/03/05 04:11:25;;;;;;;50.90;20.70;;;;;;;-0.01;100.00;60809.94;5114404;28;20441;-74
2022/03/05 04:13:57;;;;;;;44.63;20.93;;;;;;;-0.01;100.00;60809.94;5114498;28;20452;-74
2022/03/05 04:16:26;;;;;;;45.07;21.50;;;;;;;0.01;100.00;60812.06;5114309;28;20452;-74
2022/03/05 04:18:55;;;;;;;49.73;20.53;;;;;;;0.02;100.00;60813.13;5114193;28;20449;-73
2022/03/05 04:21:26;;;;;;;49.97;21.97;;;;;;;-0.09;100.00;60798.97;5114610;28;20540;-74
2022/03/05 04:24:06;;;;;;;55.17;22.43;;;;;;;-0.17;100.00;60791.03;5114010;28;20495;-75
2022/03/05 04:26:33;;;;;;;45.03;21.50;;;;;;;-0.20;100.00;60787.34;5114357;28;20553;-75
2022/03/05 04:29:06;;;;;;;54.63;22.50;;;;;;;-0.30;100.00;60784.75;5114002;28;20521;-74
2022/03/05 04:31:34;;;;;;;52.43;23.33;;;;;;;-0.10;100.00;60800.94;5114377;28;20526;-74
2022/03/05 04:34:02;;;;;;;57.60;25.20;;;;;;;-0.37;100.00;60771.81;5114055;28;20437;-74
2022/03/05 04:36:33;;;;;;;60.33;25.03;;;;;;;-0.90;100.00;60721.75;5113161;28;20467;-73
2022/03/05 04:39:02;;;;;;;59.00;24.43;;;;;;;-0.52;100.00;60755.94;5114269;28;20472;-75
2022/03/05 04:41:30;;;;;;;61.47;24.43;;;;;;;-1.96;100.00;60604.63;5113916;28;20479;-75
2022/03/05 04:44:05;;;;;;;56.23;24.67;;;;;;;-0.48;100.00;60758.19;5114171;28;20476;-73
2022/03/05 04:49:16;;;;;;;74.60;30.27;;;;;;;-0.36;100.00;60770.38;5113231;28;20441;-74
2022/03/05 04:51:43;;;;;;;68.77;30.07;;;;;;;-0.55;100.00;60755.78;5113757;28;20437;-75
2022/03/05 04:54:10;;;;;;;70.77;29.47;;;;;;;-0.55;100.00;60750.25;5114034;28;20854;-73
2022/03/05 04:56:38;;;;;;;57.47;26.53;;;;;;;-0.74;100.00;60728.16;5113538;28;20438;-75
2022/03/05 04:59:07;;;;;;;53.07;25.23;;;;;;;-1.30;100.00;60668.91;5095529;28;20520;-74
2022/03/05 05:01:34;;;;;;;79.70;30.17;;;;;;;-0.58;100.00;60749.59;5113727;28;20860;-74
2022/03/05 05:04:07;;;;;;;65.10;28.40;;;;;;;-0.40;100.00;60768.66;5113580;28;21070;-73
2022/03/05 05:06:36;;;;;;;75.13;28.90;;;;;;;-0.63;100.00;60744.28;5113329;28;20433;-74
2022/03/05 05:09:04;;;;;;;77.13;32.03;;;;;;;-0.73;100.00;60731.19;5114278;28;20814;-74
2022/03/05 05:11:32;;;;;;;79.63;32.17;;;;;;;-2.03;100.00;60602.75;5113113;28;20441;-75
2022/03/05 05:13:59;;;;;;;79.43;31.97;;;;;;;-2.03;100.00;60592.25;5112806;28;21048;-75
2022/03/05 05:16:29;;;;;;;79.13;34.33;;;;;;;-0.99;100.00;60712.25;5113439;28;20797;-74
2022/03/05 05:21:40;;;;;;;78.70;32.17;;;;;;;-2.47;100.00;60550.75;5114022;28;20800;-73
2022/03/05 05:24:07;;;;;;;88.73;30.07;;;;;;;-0.96;100.00;60710.41;5112589;28;21637;-73
2022/03/05 05:26:34;;;;;;;64.97;29.07;;;;;;;-0.77;100.00;60729.47;5113191;28;20944;-74
2022/03/05 05:29:01;;;;;;;63.97;26.63;;;;;;;-1.96;100.00;60607.13;5113331;28;20544;-75
2022/03/05 05:31:30;;;;;;;83.60;41.17;;;;;;;-1.15;100.00;60685.31;5112838;28;20445;-74
2022/03/05 05:33:58;;;;;;;72.63;32.03;;;;;;;-0.68;100.00;60741.50;5112946;28;20428;-74
2022/03/05 05:36:25;;;;;;;60.73;28.93;;;;;;;-0.57;100.00;60750.63;5112531;28;20445;-75
2022/03/05 05:38:54;;;;;;;63.67;30.27;;;;;;;-0.67;100.00;60740.06;5112699;28;20460;-74
2022/03/05 05:41:21;;;;;;;63.13;27.40;;;;;;;-1.46;100.00;60660.00;5111637;28;20456;-76
2022/03/05 05:43:50;;;;;;;57.73;26.20;;;;;;;-0.03;100.00;60808.38;5112538;28;20529;-74
2022/03/05 05:46:17;;;;;;;65.97;26.67;;;;;;;-0.13;100.00;60795.28;5112309;28;20440;-74
2022/03/05 05:48:45;;;;;;;63.33;25.67;;;;;;;-0.26;100.00;60781.50;5112361;28;20471;-74
2022/03/05 05:51:13;;;;;;;65.70;26.57;;;;;;;-0.02;100.00;60808.91;5112115;28;20473;-73
2022/03/05 05:53:41;;;;;;;48.97;25.03;;;;;;;0.16;100.00;60825.47;5112416;28;20473;-74
2022/03/05 05:56:09;;;;;;;51.67;25.07;;;;;;;0.17;100.00;60825.97;5112402;28;20786;-73
2022/03/05 05:58:37;;;;;;;60.00;26.50;;;;;;;-0.62;100.00;60743.38;5112136;28;20510;-73
2022/03/05 06:01:05;;;;;;;55.57;24.97;;;;;;;0.47;100.00;60860.81;5094339;28;20531;-76
2022/03/05 06:03:32;;;;;;;61.47;26.13;;;;;;;0.57;100.00;60868.38;5112515;28;20480;-74
2022/03/05 06:06:02;;;;;;;59.00;27.50;;;;;;;0.76;100.00;60889.06;5112694;28;20475;-74
2022/03/05 06:08:29;;;;;;;67.27;30.20;;;;;;;0.72;100.00;60884.28;5094585;28;20433;-74
2022/03/05 06:11:00;;;;;;;60.40;28.70;;;;;;;0.89;100.00;60904.28;5112386;28;20437;-74
2022/03/05 06:13:28;;;;;;;60.83;30.40;;;;;;;1.05;100.00;60931.28;5112011;28;20468;-75
2022/03/05 06:15:55;;;;;;;84.93;35.47;;;;;;;1.15;100.00;60926.84;5112566;28;20947;-74
2022/03/05 06:18:23;;;;;;;75.93;32.27;;;;;;;1.29;100.00;60944.22;5112369;28;20441;-76
2022/03/05 06:20:51;;;;;;;66.93;30.60;;;;;;;1.40;100.00;60958.38;5112957;28;20524;-75
2022/03/05 06:23:20;;;;;;;64.30;28.73;;;;;;;1.46;100.00;60964.75;5111801;28;21008;-76
2022/03/05 06:25:47;;;;;;;59.43;28.00;;;;;;;1.03;100.00;60919.16;5111664;28;20917;-73
2022/03/05 06:28:19;;;;;;;64.57;31.03;;;;;;;1.11;100.00;60918.13;5112520;28;20569;-74
2022/03/05 06:30:47;;;;;;;64.00;29.30;;;;;;;1.26;100.00;60943.53;5112234;28;20845;-72
2022/03/05 06:33:16;;;;;;;53.43;27.47;;;;;;;1.04;100.00;60920.19;5112398;28;20433;-74
2022/03/05 06:35:45;;;;;;;62.53;28.70;;;;;;;0.67;100.00;60882.03;5112729;28;20429;-72
2022/03/05 06:38:13;;;;;;;64.97;31.00;;;;;;;1.20;100.00;60932.16;5111784;28;20445;-75
2022/03/05 06:40:48;;;;;;;51.47;25.80;;;;;;;0.00;100.00;60816.03;5112200;28;20532;-73
2022/03/05 06:43:16;;;;;;;59.77;26.63;;;;;;;1.53;100.00;60974.69;5111794;28;20437;-75
2022/03/05 06:45:46;;;;;;;52.67;26.33;;;;;;;1.62;100.00;60981.72;5111805;28;20982;-73
2022/03/05 06:48:13;;;;;;;55.03;25.33;;;;;;;1.55;100.00;60974.31;5111752;28;20444;-75
2022/03/05 06:50:49;;;;;;;50.13;25.23;;;;;;;1.61;100.00;60980.69;5111945;28;20974;-74
2022/03/05 06:53:22;;;;;;;46.17;25.20;;;;;;;1.17;100.00;60934.00;5115123;28;20927;-76
2022/03/05 06:55:50;;;;;;;50.00;25.23;;;;;;;1.75;100.00;60993.03;5116996;28;20827;-72
2022/03/05 06:58:20;;;;;;;56.80;26.03;;;;;;;0.71;100.00;60885.72;5115677;28;20962;-74
2022/03/05 07:00:50;;;;;;;48.90;24.83;;;;;;;2.08;100.00;61030.56;5116767;28;20539;-75
2022/03/05 07:03:20;;;;;;;48.97;23.33;;;;;;;1.34;100.00;60952.56;5116406;28;20502;-74
2022/03/05 07:05:49;;;;;;;49.93;24.00;;;;;;;2.54;100.00;61076.91;5115175;28;20839;-72
2022/03/05 07:08:16;;;;;;;55.47;25.40;;;;;;;2.44;100.00;61068.78;5115527;28;20469;-73
2022/03/05 07:10:49;;;;;;;57.47;25.97;;;;;;;2.58;100.00;61085.13;5113749;28;20456;-75
2022/03/05 07:13:18;;;;;;;58.00;25.93;;;;;;;2.54;100.00;61079.41;5116226;28;20453;-73
2022/03/05 07:15:45;;;;;;;57.80;25.33;;;;;;;1.50;100.00;60961.47;5115952;28;20515;-75
2022/03/05 07:18:13;;;;;;;54.63;26.77;;;;;;;2.61;100.00;61088.31;5116048;28;20437;-75
2022/03/05 07:20:43;;;;;;;56.03;26.73;;;;;;;2.61;100.00;61085.78;5098059;28;20433;-72
2022/03/05 07:23:12;;;;;;;71.13;29.50;;;;;;;2.75;100.00;61103.72;5116332;28;20766;-74
2022/03/05 07:25:40;;;;;;;64.83;28.37;;;;;;;2.95;100.00;61124.97;5097012;28;20545;-74
2022/03/05 07:30:51;;;;;;;69.00;27.87;;;;;;;3.13;100.00;61136.03;5114712;28;20448;-75
2022/03/05 07:33:20;;;;;;;63.23;26.53;;;;;;;3.25;100.00;61151.28;5115369;28;20440;-75
2022/03/05 07:35:48;;;;;;;56.90;25.70;;;;;;;3.48;100.00;61175.75;5115337;28;20451;-74
2022/03/05 07:38:18;;;;;;;58.67;24.57;;;;;;;3.55;100.00;61180.69;5115507;28;20449;-76
2022/03/05 07:43:29;;;;;;;56.93;28.10;;;;;;;3.18;100.00;61143.88;5112664;28;20447;-72
2022/03/05 07:46:00;;;;;;;76.53;27.80;;;;;;;3.01;100.00;61128.84;5115187;28;20460;-73
2022/03/05 07:48:28;;;;;;;54.53;25.57;;;;;;;1.80;100.00;61000.84;5115052;28;21035;-73
2022/03/05 07:50:58;;;;;;;59.17;27.97;;;;;;;1.55;100.00;60974.31;5114914;28;20529;-75
2022/03/05 07:53:29;;;;;;;64.27;28.37;;;;;;;1.47;100.00;60953.28;5115267;28;20821;-76
2022/03/05 07:55:58;;;;;;;59.77;28.33;;;;;;;3.29;100.00;61158.06;5114686;28;20444;-74
2022/03/05 07:58:28;;;;;;;64.20;27.83;;;;;;;3.43;100.00;61170.97;5096487;28;20955;-76
2022/03/05 08:01:14;;;;;;;58.67;28.40;;;;;;;3.62;100.00;61188.13;5114833;28;20544;-75
2022/03/05 08:03:44;;;;;;;59.97;27.73;;;;;;;3.71;100.00;61202.72;5095296;28;20440;-73
2022/03/05 08:06:18;;;;;;;60.00;28.50;;;;;;;2.65;100.00;61088.06;5114503;28;20433;-76
2022/03/05 08:08:48;;;;;;;59.57;25.90;;;;;;;2.44;100.00;61073.81;5114002;28;20521;-73
2022/03/05 08:11:20;;;;;;;55.30;26.23;;;;;;;3.40;100.00;61174.81;5114796;28;20441;-76
2022/03/05 08:13:51;;;;;;;57.27;26.87;;;;;;;4.07;100.00;61243.00;5114512;28;20456;-74
2022/03/05 08:16:22;;;;;;;56.30;26.10;;;;;;;4.12;100.00;61246.38;5114422;28;20472;-76
2022/03/05 08:18:51;;;;;;;61.10;26.23;;;;;;;4.20;100.00;61254.88;5113807;28;20456;-72
2022/03/05 08:21:26;;;;;;;54.03;27.07;;;;;;;3.40;100.00;61167.25;5114973;28;20511;-75
2022/03/05 08:23:56;;;;;;;55.37;28.43;;;;;;;3.92;100.00;61224.53;5114969;28;20478;-75
2022/03/05 08:26:27;;;;;;;70.63;30.20;;;;;;;2.82;100.00;61113.16;5096201;28;20441;-74
2022/03/05 08:28:54;;;;;;;70.63;29.90;;;;;;;4.05;100.00;61238.38;5095972;28;20485;-75
2022/03/05 08:31:37;;;;;;;62.10;29.07;;;;;;;4.16;100.00;61245.56;5095897;28;20441;-75
2022/03/05 08:34:06;;;;;;;58.27;29.90;;;;;;;3.71;100.00;61197.69;5114407;28;20432;-77
2022/03/05 08:36:34;;;;;;;63.67;29.03;;;;;;;4.40;100.00;61275.09;5114012;28;20541;-76
2022/03/05 08:39:05;;;;;;;61.00;29.90;;;;;;;4.45;100.00;61277.91;5113888;28;20456;-77
2022/03/05 08:41:57;;;;;;;58.77;29.57;;;;;;;4.57;100.00;61288.16;5113812;28;20799;-76
2022/03/05 08:44:37;;;;;;;61.20;31.50;;;;;;;3.38;100.00;61165.13;5114146;28;20498;-73
2022/03/05 08:47:16;;;;;;;60.37;29.53;;;;;;;4.42;100.00;61277.22;5112205;28;20473;-75
2022/03/05 08:49:47;;;;;;;55.27;27.97;;;;;;;4.57;100.00;61288.16;5114435;28;20512;-75
2022/03/05 08:54:57;;;;;;;43.57;22.30;;;;;;;4.76;100.00;61313.94;5112500;28;20435;-75
2022/03/05 08:57:30;;;;;;;52.30;26.13;;;;;;;4.60;100.00;61296.91;5113252;28;21000;-74
2022/03/05 09:02:49;;;;;;;32.00;15.83;;;;;;;3.66;100.00;61194.91;5107649;28;20437;-74
2022/03/05 09:05:18;;;;;;;46.33;22.60;;;;;;;4.50;100.00;61283.22;5095472;28;20491;-76
2022/03/05 09:07:46;;;;;;;29.97;13.70;;;;;;;3.24;100.00;61147.72;5114469;28;20437;-73
2022/03/05 09:10:13;;;;;;;30.40;15.27;;;;;;;3.44;100.00;61166.47;5113422;28;20445;-75
2022/03/05 09:12:42;;;;;;;28.20;16.37;;;;;;;4.40;100.00;61275.09;5095045;28;20880;-74
2022/03/05 09:15:10;;;;;;;35.87;17.63;;;;;;;4.68;100.00;61302.38;5112203;28;20525;-74
2022/03/05 09:17:37;;;;;;;32.57;17.43;;;;;;;4.78;100.00;61315.53;5113084;28;20441;-75
2022/03/05 09:20:09;;;;;;;32.77;16.47;;;;;;;4.58;100.00;61299.84;5112545;28;20448;-74
2022/03/05 09:22:38;;;;;;;52.47;19.70;;;;;;;5.10;100.00;61349.63;5113239;28;20433;-75
2022/03/05 09:25:09;;;;;;;31.07;15.27;;;;;;;3.97;100.00;61227.34;5112934;28;20488;-75
2022/03/05 09:27:36;;;;;;;39.97;18.43;;;;;;;5.56;100.00;61398.09;5116439;28;20437;-75
2022/03/05 09:30:05;;;;;;;30.03;17.80;;;;;;;5.75;100.00;61418.91;5113300;28;20485;-74
2022/03/05 09:32:33;;;;;;;25.50;15.30;;;;;;;5.91;100.00;61433.47;5113318;28;20460;-76
2022/03/05 09:35:01;;;;;;;28.83;14.80;;;;;;;5.60;100.00;61400.38;5113514;28;20429;-75
2022/03/05 09:37:34;;;;;;;29.80;15.17;;;;;;;5.87;100.00;61431.72;5112768;28;20440;-75
2022/03/05 09:40:09;;;;;;;30.10;16.77;;;;;;;6.04;100.00;61446.25;5112835;28;20515;-73
2022/03/05 09:42:37;;;;;;;28.40;15.03;;;;;;;6.10;100.00;61452.66;5112738;28;20444;-75
2022/03/05 09:47:47;;;;;;;31.70;17.30;;;;;;;6.48;100.00;61490.66;5112259;28;20982;-75
2022/03/05 09:50:15;;;;;;;19.23;10.70;;;;;;;6.32;100.00;61476.09;5112713;28;20437;-75
2022/03/05 09:52:44;;;;;;;28.57;16.23;;;;;;;3.50;100.00;61180.41;5112523;28;20445;-75
2022/03/05 09:55:12;;;;;;;34.40;17.43;;;;;;;5.62;100.00;61399.97;5112170;28;20437;-76
2022/03/05 09:57:40;;;;;;;26.33;16.03;;;;;;;5.33;100.00;61371.63;5112371;28;20486;-74
2022/03/05 10:00:10;;;;;;;25.03;12.70;;;;;;;5.89;100.00;61428.78;5112254;28;20955;-75
2022/03/05 10:02:38;;;;;;;24.43;14.77;;;;;;;4.10;100.00;61239.19;5093849;28;20807;-74
2022/03/05 10:05:16;;;;;;;36.03;18.30;;;;;;;5.37;100.00;61375.34;5093938;28;20541;-75
2022/03/05 10:08:16;;;;;;;29.30;16.73;;;;;;;5.48;100.00;61385.06;5112315;28;20923;-73
2022/03/05 10:10:59;;;;;;;37.60;14.20;;;;;;;5.16;100.00;61353.50;5107690;28;20441;-75
2022/03/05 10:13:28;;;;;;;37.47;17.23;;;;;;;4.91;100.00;61324.34;5113463;28;20463;-72
2022/03/05 10:15:59;;;;;;;31.60;16.10;;;;;;;3.26;100.00;61144.81;5114662;28;20434;-73
2022/03/05 10:18:35;;;;;;;34.60;17.03;;;;;;;4.89;100.00;61325.25;5112338;28;20429;-73
2022/03/05 10:21:05;;;;;;;41.90;20.93;;;;;;;4.78;100.00;61311.03;5112479;28;20440;-73
2022/03/05 10:23:36;;;;;;;33.83;17.17;;;;;;;4.83;100.00;61313.81;5094067;28;20472;-73
2022/03/05 10:26:08;;;;;;;32.73;18.07;;;;;;;5.02;100.00;61336.06;5112912;28;20513;-75
2022/03/05 10:28:37;;;;;;;31.37;14.93;;;;;;;5.01;100.00;61340.06;5116368;28;20460;-74
2022/03/05 10:31:07;;;;;;;40.27;19.27;;;;;;;5.00;100.00;61336.44;5116154;28;20472;-74
2022/03/05 10:33:37;;;;;;;37.00;17.20;;;;;;;4.55;100.00;61288.53;5116170;28;20449;-73
2022/03/05 10:36:09;;;;;;;32.57;17.93;;;;;;;3.67;100.00;61198.47;5116309;28;20485;-75
2022/03/05 10:39:09;;;;;;;42.20;22.67;;;;;;;5.00;100.00;61338.97;5116260;28;20432;-75
2022/03/05 10:41:40;;;;;;;33.77;16.27;;;;;;;4.93;100.00;61326.47;5115296;28;20444;-74
2022/03/05 10:44:10;;;;;;;31.57;13.70;;;;;;;4.49;100.00;61285.19;5115963;28;20452;-72
2022/03/05 10:46:39;;;;;;;28.83;14.37;;;;;;;4.74;100.00;61311.81;5097833;28;20484;-74
2022/03/05 10:49:11;;;;;;;44.90;18.73;;;;;;;4.84;100.00;61319.41;5115890;28;20436;-73
2022/03/05 10:52:04;;;;;;;38.10;21.03;;;;;;;4.79;100.00;61316.63;5115610;28;20479;-73
2022/03/05 10:54:34;;;;;;;29.83;14.60;;;;;;;3.77;100.00;61209.13;5115998;28;20444;-74
2022/03/05 10:57:11;;;;;;;46.60;19.90;;;;;;;4.75;100.00;61309.84;5097665;28;20505;-73
2022/03/05 10:59:40;;;;;;;43.13;21.00;;;;;;;4.83;100.00;61320.88;5115724;28;20437;-74
2022/03/05 11:02:19;;;;;;;37.50;19.13;;;;;;;3.33;100.00;61160.34;5097473;28;20429;-74
2022/03/05 11:04:47;;;;;;;30.30;17.27;;;;;;;4.77;100.00;61309.44;5117568;28;20468;-74
2022/03/05 11:07:23;;;;;;;32.73;17.50;;;;;;;4.58;100.00;61292.25;5116232;28;20443;-74
2022/03/05 11:09:54;;;;;;;35.57;17.60;;;;;;;4.90;100.00;61328.88;5115087;28;20484;-73
2022/03/05 11:12:23;;;;;;;32.87;16.60;;;;;;;4.52;100.00;61285.34;5116585;28;20435;-76
2022/03/05 11:14:56;;;;;;;39.03;19.10;;;;;;;4.57;100.00;61298.75;5115282;28;20468;-73
2022/03/05 11:17:28;;;;;;;31.40;18.50;;;;;;;4.80;100.00;61317.69;5115505;28;20520;-74
2022/03/05 11:19:58;;;;;;;30.70;17.07;;;;;;;5.07;100.00;61343.91;5115373;28;20448;-74
2022/03/05 11:22:27;;;;;;;29.50;16.57;;;;;;;5.03;100.00;61342.19;5115379;28;20995;-74
2022/03/05 11:24:57;;;;;;;35.90;17.03;;;;;;;5.13;100.00;61350.31;5114156;28;20902;-76
2022/03/05 11:27:27;;;;;;;37.13;21.17;;;;;;;5.02;100.00;61339.13;5115106;28;20429;-75
2022/03/05 11:29:57;;;;;;;37.00;19.27;;;;;;;5.04;100.00;61341.25;5097251;28;20436;-75
2022/03/05 11:32:32;;;;;;;31.97;15.73;;;;;;;3.87;100.00;61217.22;5115567;28;20441;-73
2022/03/05 11:35:01;;;;;;;25.57;13.80;;;;;;;4.70;100.00;61304.50;5117619;28;20477;-73
2022/03/05 11:37:34;;;;;;;34.07;19.73;;;;;;;4.64;100.00;61298.13;5116541;28;20433;-76
2022/03/05 11:40:02;;;;;;;34.30;18.77;;;;;;;3.59;100.00;61189.97;5115804;28;20436;-75
2022/03/05 11:42:36;;;;;;;29.37;16.67;;;;;;;4.67;100.00;61303.84;5097377;28;20457;-73
2022/03/05 11:45:28;;;;;;;25.90;13.87;;;;;;;4.80;100.00;61315.16;5096972;28;20596;-74
2022/03/05 11:48:19;;;;;;;28.83;16.27;;;;;;;4.74;100.00;61306.25;5097054;28;20440;-77
2022/03/05 11:50:51;;;;;;;25.53;14.30;;;;;;;4.78;100.00;61315.53;5114984;28;20448;-74
2022/03/05 11:53:19;;;;;;;37.67;18.30;;;;;;;3.87;100.00;61209.69;5115561;28;20501;-74